createdAt,value
2023-01-27T00:00:54.748Z,926.02
2023-01-27T00:01:54.744Z,926.01
2023-01-27T00:02:54.782Z,926.07
2023-01-27T00:03:54.738Z,926.07
2023-01-27T00:04:54.687Z,926.11
2023-01-27T00:05:54.669Z,926.10
2023-01-27T00:06:54.723Z,926.12
2023-01-27T00:07:54.648Z,926.14
2023-01-27T00:08:54.634Z,926.13
2023-01-27T00:09:54.672Z,926.17
2023-01-27T00:10:54.601Z,926.20
2023-01-27T00:11:54.617Z,926.24
2023-01-27T00:12:54.660Z,926.25
2023-01-27T00:13:54.628Z,926.30
2023-01-27T00:14:54.575Z,926.31
2023-01-27T00:15:54.608Z,926.33
2023-01-27T00:16:54.573Z,926.32
2023-01-27T00:17:54.572Z,926.31
2023-01-27T00:18:54.591Z,926.40
2023-01-27T00:19:54.564Z,926.39
2023-01-27T00:20:54.495Z,926.37
2023-01-27T00:21:54.502Z,926.40
2023-01-27T00:22:54.508Z,926.40
2023-01-27T00:23:54.565Z,926.41
2023-01-27T00:24:54.516Z,926.42
2023-01-27T00:25:54.529Z,926.42
2023-01-27T00:26:54.443Z,926.43
2023-01-27T00:27:54.449Z,926.44
2023-01-27T00:28:54.447Z,926.44
2023-01-27T00:29:54.478Z,926.46
2023-01-27T00:30:54.566Z,926.47
2023-01-27T00:31:54.540Z,926.52
2023-01-27T00:32:54.368Z,926.52
2023-01-27T00:33:54.338Z,926.56
2023-01-27T00:34:54.400Z,926.59
2023-01-27T00:35:54.415Z,926.61
2023-01-27T00:36:54.407Z,926.62
2023-01-27T00:37:54.430Z,926.63
2023-01-27T00:38:54.333Z,926.63
2023-01-27T00:39:54.327Z,926.62
2023-01-27T00:40:54.319Z,926.62
2023-01-27T00:41:54.286Z,926.64
2023-01-27T00:42:54.294Z,926.65
2023-01-27T00:43:54.240Z,926.68
2023-01-27T00:44:54.266Z,926.68
2023-01-27T00:45:54.256Z,926.68
2023-01-27T00:46:54.380Z,926.70
2023-01-27T00:47:54.275Z,926.72
2023-01-27T00:48:54.190Z,926.73
2023-01-27T00:49:54.244Z,926.73
2023-01-27T00:50:54.222Z,926.74
2023-01-27T00:51:54.201Z,926.75
2023-01-27T00:52:54.219Z,926.78
2023-01-27T00:53:54.202Z,926.80
2023-01-27T00:54:54.211Z,926.82
2023-01-27T00:55:54.321Z,926.85
2023-01-27T00:56:54.133Z,926.81
2023-01-27T00:57:54.133Z,926.79
2023-01-27T00:58:54.163Z,926.79
2023-01-27T00:59:54.099Z,926.80
2023-01-27T01:00:54.146Z,926.82
2023-01-27T01:01:54.124Z,926.81
2023-01-27T01:02:54.069Z,926.81
2023-01-27T01:03:54.067Z,926.79
2023-01-27T01:04:54.100Z,926.79
2023-01-27T01:05:53.978Z,926.79
2023-01-27T01:06:53.983Z,926.82
2023-01-27T01:07:54.013Z,926.83
2023-01-27T01:08:54.007Z,926.81
2023-01-27T01:09:54.424Z,926.82
2023-01-27T01:10:54.017Z,926.83
2023-01-27T01:11:53.984Z,926.80
2023-01-27T01:12:53.925Z,926.80
2023-01-27T01:13:56.426Z,926.80
2023-01-27T01:14:53.948Z,926.83
2023-01-27T01:15:54.470Z,926.82
2023-01-27T01:16:53.963Z,926.82
2023-01-27T01:17:53.977Z,926.82
2023-01-27T01:18:53.857Z,926.81
2023-01-27T01:19:53.885Z,926.81
2023-01-27T01:20:53.882Z,926.82
2023-01-27T01:21:53.878Z,926.83
2023-01-27T01:22:53.899Z,926.79
2023-01-27T01:23:53.915Z,926.78
2023-01-27T01:24:53.823Z,926.79
2023-01-27T01:25:53.832Z,926.79
2023-01-27T01:26:53.815Z,926.79
2023-01-27T01:27:53.826Z,926.80
2023-01-27T01:28:53.835Z,926.79
2023-01-27T01:29:53.810Z,926.78
2023-01-27T01:30:53.955Z,926.77
2023-01-27T01:31:53.744Z,926.78
2023-01-27T01:32:53.779Z,926.80
2023-01-27T01:33:53.768Z,926.84
2023-01-27T01:34:53.717Z,926.85
2023-01-27T01:35:53.811Z,926.88
2023-01-27T01:36:53.682Z,926.88
2023-01-27T01:37:53.689Z,926.88
2023-01-27T01:38:53.706Z,926.86
2023-01-27T01:39:53.705Z,926.85
2023-01-27T01:40:53.712Z,926.84
2023-01-27T01:41:53.718Z,926.83
2023-01-27T01:42:53.737Z,926.81
2023-01-27T01:43:53.633Z,926.81
2023-01-27T01:44:53.633Z,926.81
2023-01-27T01:45:53.742Z,926.83
2023-01-27T01:46:53.847Z,926.84
2023-01-27T01:47:53.631Z,926.83
2023-01-27T01:48:54.017Z,926.79
2023-01-27T01:49:53.681Z,926.77
2023-01-27T01:50:53.576Z,926.79
2023-01-27T01:51:54.192Z,926.83
2023-01-27T01:52:53.571Z,926.81
2023-01-27T01:53:53.529Z,926.80
2023-01-27T01:54:53.522Z,926.88
2023-01-27T01:55:53.758Z,926.86
2023-01-27T01:56:53.510Z,926.86
2023-01-27T01:57:53.452Z,926.86
2023-01-27T01:58:53.436Z,926.80
2023-01-27T01:59:53.548Z,926.79
2023-01-27T02:00:53.571Z,926.76
2023-01-27T02:01:53.444Z,926.75
2023-01-27T02:02:53.600Z,926.78
2023-01-27T02:03:53.736Z,926.72
2023-01-27T02:04:53.388Z,926.69
2023-01-27T02:05:53.344Z,926.71
2023-01-27T02:06:53.342Z,926.72
2023-01-27T02:07:53.391Z,926.71
2023-01-27T02:08:53.601Z,926.71
2023-01-27T02:09:53.301Z,926.71
2023-01-27T02:10:53.384Z,926.71
2023-01-27T02:11:53.279Z,926.71
2023-01-27T02:12:53.320Z,926.72
2023-01-27T02:13:53.305Z,926.72
2023-01-27T02:14:53.303Z,926.72
2023-01-27T02:15:53.280Z,926.72
2023-01-27T02:16:53.246Z,926.70
2023-01-27T02:17:53.223Z,926.69
2023-01-27T02:18:53.241Z,926.67
2023-01-27T02:19:53.232Z,926.68
2023-01-27T02:20:53.261Z,926.62
2023-01-27T02:21:53.139Z,926.59
2023-01-27T02:22:53.122Z,926.59
2023-01-27T02:23:53.173Z,926.59
2023-01-27T02:24:53.097Z,926.58
2023-01-27T02:25:53.102Z,926.56
2023-01-27T02:26:53.073Z,926.54
2023-01-27T02:27:53.129Z,926.53
2023-01-27T02:28:53.101Z,926.51
2023-01-27T02:29:53.039Z,926.52
2023-01-27T02:30:53.169Z,926.51
2023-01-27T02:31:53.224Z,926.51
2023-01-27T02:32:53.011Z,926.48
2023-01-27T02:33:52.996Z,926.48
2023-01-27T02:34:53.036Z,926.47
2023-01-27T02:35:52.970Z,926.45
2023-01-27T02:36:52.948Z,926.46
2023-01-27T02:37:52.970Z,926.45
2023-01-27T02:38:52.948Z,926.43
2023-01-27T02:39:52.968Z,926.46
2023-01-27T02:40:52.971Z,926.45
2023-01-27T02:41:52.952Z,926.47
2023-01-27T02:42:52.876Z,926.49
2023-01-27T02:43:52.880Z,926.48
2023-01-27T02:44:52.889Z,926.48
2023-01-27T02:45:52.877Z,926.53
2023-01-27T02:46:52.915Z,926.52
2023-01-27T02:47:52.848Z,926.49
2023-01-27T02:48:52.878Z,926.51
2023-01-27T02:49:52.819Z,926.53
2023-01-27T02:50:52.822Z,926.50
2023-01-27T02:51:52.781Z,926.54
2023-01-27T02:52:52.795Z,926.54
2023-01-27T02:53:52.745Z,926.53
2023-01-27T02:54:52.746Z,926.51
2023-01-27T02:55:52.812Z,926.51
2023-01-27T02:56:52.762Z,926.50
2023-01-27T02:57:52.763Z,926.48
2023-01-27T02:58:52.742Z,926.48
2023-01-27T02:59:52.903Z,926.46
2023-01-27T03:00:52.687Z,926.47
2023-01-27T03:01:52.695Z,926.49
2023-01-27T03:02:52.698Z,926.45
2023-01-27T03:03:52.707Z,926.47
2023-01-27T03:04:52.693Z,926.46
2023-01-27T03:05:52.667Z,926.46
2023-01-27T03:06:52.638Z,926.44
2023-01-27T03:07:52.634Z,926.41
2023-01-27T03:08:52.589Z,926.41
2023-01-27T03:09:52.592Z,926.38
2023-01-27T03:10:52.615Z,926.41
2023-01-27T03:11:52.555Z,926.44
2023-01-27T03:12:52.623Z,926.42
2023-01-27T03:13:52.573Z,926.36
2023-01-27T03:14:52.530Z,926.35
2023-01-27T03:15:52.618Z,926.35
2023-01-27T03:16:52.581Z,926.31
2023-01-27T03:17:52.510Z,926.30
2023-01-27T03:18:52.602Z,926.30
2023-01-27T03:19:52.492Z,926.35
2023-01-27T03:20:52.466Z,926.33
2023-01-27T03:21:52.523Z,926.30
2023-01-27T03:22:52.484Z,926.28
2023-01-27T03:23:52.554Z,926.29
2023-01-27T03:24:52.441Z,926.29
2023-01-27T03:25:52.440Z,926.28
2023-01-27T03:26:52.407Z,926.28
2023-01-27T03:27:52.428Z,926.29
2023-01-27T03:28:52.423Z,926.30
2023-01-27T03:29:52.396Z,926.30
2023-01-27T03:30:52.450Z,926.32
2023-01-27T03:31:52.551Z,926.33
2023-01-27T03:32:52.327Z,926.33
2023-01-27T03:33:52.401Z,926.33
2023-01-27T03:34:52.340Z,926.33
2023-01-27T03:35:52.337Z,926.33
2023-01-27T03:36:52.315Z,926.32
2023-01-27T03:37:52.265Z,926.33
2023-01-27T03:38:52.267Z,926.33
2023-01-27T03:39:52.294Z,926.33
2023-01-27T03:40:52.289Z,926.33
2023-01-27T03:41:52.230Z,926.35
2023-01-27T03:42:52.238Z,926.32
2023-01-27T03:43:52.204Z,926.30
2023-01-27T03:44:52.208Z,926.29
2023-01-27T03:45:52.230Z,926.26
2023-01-27T03:46:52.264Z,926.25
2023-01-27T03:47:52.234Z,926.23
2023-01-27T03:48:52.188Z,926.22
2023-01-27T03:49:52.160Z,926.21
2023-01-27T03:50:52.195Z,926.21
2023-01-27T03:51:52.153Z,926.22
2023-01-27T03:52:52.162Z,926.23
2023-01-27T03:53:52.161Z,926.26
2023-01-27T03:54:52.118Z,926.26
2023-01-27T03:55:52.074Z,926.24
2023-01-27T03:56:52.084Z,926.20
2023-01-27T03:57:52.081Z,926.18
2023-01-27T03:58:52.089Z,926.15
2023-01-27T03:59:52.051Z,926.16
2023-01-27T04:00:52.131Z,926.20
2023-01-27T04:01:52.051Z,926.20
2023-01-27T04:02:52.096Z,926.18
2023-01-27T04:03:52.045Z,926.18
2023-01-27T04:04:52.101Z,926.17
2023-01-27T04:05:52.015Z,926.16
2023-01-27T04:06:51.994Z,926.16
2023-01-27T04:07:52.005Z,926.13
2023-01-27T04:08:51.960Z,926.13
2023-01-27T04:09:51.963Z,926.10
2023-01-27T04:10:51.972Z,926.07
2023-01-27T04:11:51.931Z,926.05
2023-01-27T04:12:51.935Z,926.03
2023-01-27T04:13:51.888Z,926.06
2023-01-27T04:14:51.900Z,926.04
2023-01-27T04:15:51.948Z,926.03
2023-01-27T04:16:52.006Z,925.99
2023-01-27T04:17:51.873Z,926.00
2023-01-27T04:18:51.878Z,925.99
2023-01-27T04:19:51.829Z,926.00
2023-01-27T04:20:51.832Z,925.99
2023-01-27T04:21:51.852Z,925.97
2023-01-27T04:22:51.857Z,925.95
2023-01-27T04:23:51.827Z,925.94
2023-01-27T04:24:51.770Z,925.93
2023-01-27T04:25:51.770Z,925.94
2023-01-27T04:26:51.790Z,925.90
2023-01-27T04:27:51.774Z,925.89
2023-01-27T04:28:51.795Z,925.86
2023-01-27T04:29:51.761Z,925.82
2023-01-27T04:30:51.799Z,925.81
2023-01-27T04:31:51.781Z,925.80
2023-01-27T04:32:51.727Z,925.79
2023-01-27T04:33:51.723Z,925.82
2023-01-27T04:34:51.732Z,925.77
2023-01-27T04:35:51.738Z,925.77
2023-01-27T04:36:51.646Z,925.76
2023-01-27T04:37:51.644Z,925.76
2023-01-27T04:38:51.708Z,925.74
2023-01-27T04:39:51.684Z,925.72
2023-01-27T04:40:51.624Z,925.71
2023-01-27T04:41:51.649Z,925.68
2023-01-27T04:42:51.646Z,925.67
2023-01-27T04:43:51.597Z,925.66
2023-01-27T04:44:51.649Z,925.70
2023-01-27T04:45:51.611Z,925.71
2023-01-27T04:46:51.599Z,925.72
2023-01-27T04:47:51.618Z,925.71
2023-01-27T04:48:51.519Z,925.71
2023-01-27T04:49:51.582Z,925.70
2023-01-27T04:50:51.593Z,925.70
2023-01-27T04:51:51.497Z,925.68
2023-01-27T04:52:51.511Z,925.68
2023-01-27T04:53:51.526Z,925.65
2023-01-27T04:54:51.454Z,925.66
2023-01-27T04:55:51.515Z,925.66
2023-01-27T04:56:51.464Z,925.65
2023-01-27T04:57:51.422Z,925.65
2023-01-27T04:58:51.428Z,925.67
2023-01-27T04:59:51.441Z,925.67
2023-01-27T05:00:51.390Z,925.66
2023-01-27T05:01:51.451Z,925.65
2023-01-27T05:02:51.445Z,925.65
2023-01-27T05:03:51.356Z,925.63
2023-01-27T05:04:51.363Z,925.63
2023-01-27T05:05:51.387Z,925.63
2023-01-27T05:06:51.322Z,925.65
2023-01-27T05:07:51.344Z,925.66
2023-01-27T05:08:51.441Z,925.67
2023-01-27T05:09:51.298Z,925.68
2023-01-27T05:10:51.301Z,925.68
2023-01-27T05:11:51.362Z,925.69
2023-01-27T05:12:51.262Z,925.70
2023-01-27T05:13:51.273Z,925.69
2023-01-27T05:14:51.291Z,925.67
2023-01-27T05:15:51.252Z,925.66
2023-01-27T05:16:51.287Z,925.65
2023-01-27T05:17:51.259Z,925.64
2023-01-27T05:18:51.204Z,925.64
2023-01-27T05:19:51.219Z,925.64
2023-01-27T05:20:52.191Z,925.64
2023-01-27T05:21:51.157Z,925.64
2023-01-27T05:22:51.191Z,925.65
2023-01-27T05:23:51.371Z,925.64
2023-01-27T05:24:51.182Z,925.63
2023-01-27T05:25:51.154Z,925.61
2023-01-27T05:26:51.099Z,925.59
2023-01-27T05:27:51.092Z,925.56
2023-01-27T05:28:51.101Z,925.55
2023-01-27T05:29:51.109Z,925.54
2023-01-27T05:30:51.139Z,925.54
2023-01-27T05:31:51.195Z,925.55
2023-01-27T05:32:51.060Z,925.55
2023-01-27T05:33:51.033Z,925.55
2023-01-27T05:34:51.014Z,925.54
2023-01-27T05:35:51.045Z,925.53
2023-01-27T05:36:51.021Z,925.54
2023-01-27T05:37:51.106Z,925.55
2023-01-27T05:38:50.966Z,925.56
2023-01-27T05:39:50.971Z,925.55
2023-01-27T05:40:50.968Z,925.55
2023-01-27T05:41:51.007Z,925.52
2023-01-27T05:42:50.962Z,925.50
2023-01-27T05:43:50.992Z,925.46
2023-01-27T05:44:50.936Z,925.43
2023-01-27T05:45:50.912Z,925.42
2023-01-27T05:46:50.933Z,925.41
2023-01-27T05:47:50.974Z,925.40
2023-01-27T05:48:50.897Z,925.40
2023-01-27T05:49:50.877Z,925.40
2023-01-27T05:50:50.975Z,925.40
2023-01-27T05:51:50.850Z,925.38
2023-01-27T05:52:50.897Z,925.37
2023-01-27T05:53:50.904Z,925.34
2023-01-27T05:54:50.879Z,925.35
2023-01-27T05:55:50.884Z,925.36
2023-01-27T05:56:50.787Z,925.38
2023-01-27T05:57:50.794Z,925.37
2023-01-27T05:58:50.799Z,925.37
2023-01-27T05:59:50.834Z,925.38
2023-01-27T06:00:50.837Z,925.37
2023-01-27T06:01:51.038Z,925.35
2023-01-27T06:02:50.774Z,925.34
2023-01-27T06:03:50.835Z,925.36
2023-01-27T06:04:50.842Z,925.35
2023-01-27T06:05:50.788Z,925.35
2023-01-27T06:06:50.756Z,925.33
2023-01-27T06:07:50.959Z,925.33
2023-01-27T06:08:50.713Z,925.36
2023-01-27T06:09:50.719Z,925.36
2023-01-27T06:10:50.671Z,925.31
2023-01-27T06:11:51.036Z,925.31
2023-01-27T06:12:50.683Z,925.29
2023-01-27T06:13:50.637Z,925.28
2023-01-27T06:14:50.609Z,925.27
2023-01-27T06:15:50.713Z,925.29
2023-01-27T06:16:50.628Z,925.30
2023-01-27T06:17:52.760Z,925.30
2023-01-27T06:18:50.629Z,925.30
2023-01-27T06:19:50.586Z,925.30
2023-01-27T06:20:50.638Z,925.31
2023-01-27T06:21:50.600Z,925.28
2023-01-27T06:22:50.522Z,925.29
2023-01-27T06:23:51.093Z,925.28
2023-01-27T06:24:50.569Z,925.28
2023-01-27T06:25:50.541Z,925.29
2023-01-27T06:26:50.524Z,925.30
2023-01-27T06:27:50.477Z,925.32
2023-01-27T06:28:50.453Z,925.32
2023-01-27T06:29:50.576Z,925.34
2023-01-27T06:30:50.459Z,925.34
2023-01-27T06:31:50.497Z,925.36
2023-01-27T06:32:50.478Z,925.34
2023-01-27T06:33:50.476Z,925.35
2023-01-27T06:34:50.378Z,925.34
2023-01-27T06:35:51.008Z,925.33
2023-01-27T06:36:50.379Z,925.33
2023-01-27T06:37:50.452Z,925.35
2023-01-27T06:38:50.432Z,925.43
2023-01-27T06:39:50.298Z,925.38
2023-01-27T06:40:50.306Z,925.40
2023-01-27T06:41:50.519Z,925.40
2023-01-27T06:42:50.594Z,925.38
2023-01-27T06:43:50.325Z,925.37
2023-01-27T06:44:50.308Z,925.39
2023-01-27T06:45:50.293Z,925.41
2023-01-27T06:46:50.244Z,925.42
2023-01-27T06:47:50.462Z,925.42
2023-01-27T06:48:50.281Z,925.46
2023-01-27T06:49:50.266Z,925.43
2023-01-27T06:50:50.282Z,925.42
2023-01-27T06:51:50.181Z,925.41
2023-01-27T06:52:50.186Z,925.41
2023-01-27T06:53:50.245Z,925.41
2023-01-27T06:54:50.198Z,925.41
2023-01-27T06:55:50.204Z,925.40
2023-01-27T06:56:50.203Z,925.42
2023-01-27T06:57:50.171Z,925.45
2023-01-27T06:58:50.151Z,925.44
2023-01-27T06:59:50.142Z,925.44
2023-01-27T07:00:50.105Z,925.42
2023-01-27T07:01:50.166Z,925.41
2023-01-27T07:02:50.206Z,925.42
2023-01-27T07:03:50.064Z,925.41
2023-01-27T07:04:50.068Z,925.42
2023-01-27T07:05:50.082Z,925.40
2023-01-27T07:06:50.121Z,925.44
2023-01-27T07:07:50.154Z,925.48
2023-01-27T07:08:50.050Z,925.44
2023-01-27T07:09:52.576Z,925.43
2023-01-27T07:10:50.021Z,925.42
2023-01-27T07:11:50.013Z,925.44
2023-01-27T07:12:50.059Z,925.44
2023-01-27T07:13:50.091Z,925.43
2023-01-27T07:14:49.985Z,925.44
2023-01-27T07:15:49.942Z,925.46
2023-01-27T07:16:49.995Z,925.46
2023-01-27T07:17:50.462Z,925.45
2023-01-27T07:18:50.013Z,925.46
2023-01-27T07:19:50.021Z,925.48
2023-01-27T07:20:49.913Z,925.47
2023-01-27T07:21:49.935Z,925.47
2023-01-27T07:22:49.886Z,925.48
2023-01-27T07:23:49.924Z,925.47
2023-01-27T07:24:49.939Z,925.47
2023-01-27T07:25:49.965Z,925.49
2023-01-27T07:26:49.858Z,925.48
2023-01-27T07:27:49.850Z,925.51
2023-01-27T07:28:49.838Z,925.48
2023-01-27T07:29:49.970Z,925.50
2023-01-27T07:30:49.910Z,925.54
2023-01-27T07:31:49.827Z,925.50
2023-01-27T07:32:49.757Z,925.52
2023-01-27T07:33:49.799Z,925.52
2023-01-27T07:34:49.919Z,925.48
2023-01-27T07:35:49.837Z,925.49
2023-01-27T07:36:49.815Z,925.58
2023-01-27T07:37:49.724Z,925.48
2023-01-27T07:38:49.696Z,925.43
2023-01-27T07:39:49.747Z,925.40
2023-01-27T07:40:49.682Z,925.41
2023-01-27T07:41:49.741Z,925.40
2023-01-27T07:42:49.647Z,925.39
2023-01-27T07:43:51.519Z,925.41
2023-01-27T07:44:49.609Z,925.44
2023-01-27T07:45:49.652Z,925.43
2023-01-27T07:46:49.634Z,925.46
2023-01-27T07:47:49.694Z,925.49
2023-01-27T07:48:49.641Z,925.44
2023-01-27T07:49:49.621Z,925.44
2023-01-27T07:50:49.739Z,925.50
2023-01-27T07:51:49.595Z,925.47
2023-01-27T07:52:49.563Z,925.48
2023-01-27T07:53:49.566Z,925.50
2023-01-27T07:54:49.562Z,925.53
2023-01-27T07:55:49.986Z,925.53
2023-01-27T07:56:49.619Z,925.56
2023-01-27T07:57:49.523Z,925.60
2023-01-27T07:58:49.497Z,925.63
2023-01-27T07:59:49.498Z,925.57
2023-01-27T08:00:49.547Z,925.57
2023-01-27T08:01:49.514Z,925.60
2023-01-27T08:02:49.545Z,925.58
2023-01-27T08:03:49.432Z,925.61
2023-01-27T08:04:53.240Z,925.62
2023-01-27T08:05:49.445Z,925.62
2023-01-27T08:06:49.529Z,925.69
2023-01-27T08:07:49.452Z,925.63
2023-01-27T08:08:49.400Z,925.67
2023-01-27T08:09:49.363Z,925.65
2023-01-27T08:10:49.389Z,925.65
2023-01-27T08:11:49.417Z,925.61
2023-01-27T08:12:49.390Z,925.57
2023-01-27T08:13:49.380Z,925.60
2023-01-27T08:14:49.338Z,925.63
2023-01-27T08:15:49.305Z,925.62
2023-01-27T08:16:49.355Z,925.66
2023-01-27T08:17:49.300Z,925.66
2023-01-27T08:18:49.322Z,925.67
2023-01-27T08:19:49.311Z,925.65
2023-01-27T08:20:49.339Z,925.64
2023-01-27T08:21:49.235Z,925.64
2023-01-27T08:22:49.253Z,925.65
2023-01-27T08:23:49.273Z,925.67
2023-01-27T08:24:49.262Z,925.67
2023-01-27T08:25:49.209Z,925.69
2023-01-27T08:26:49.171Z,925.68
2023-01-27T08:27:49.219Z,925.67
2023-01-27T08:28:49.231Z,925.68
2023-01-27T08:29:49.246Z,925.67
2023-01-27T08:30:49.128Z,925.67
2023-01-27T08:31:49.128Z,925.67
2023-01-27T08:32:49.167Z,925.68
2023-01-27T08:33:49.115Z,925.72
2023-01-27T08:34:49.116Z,925.75
2023-01-27T08:35:49.119Z,925.79
2023-01-27T08:36:49.128Z,925.76
2023-01-27T08:37:49.137Z,925.77
2023-01-27T08:38:49.042Z,925.84
2023-01-27T08:39:49.004Z,925.86
2023-01-27T08:40:49.062Z,925.89
2023-01-27T08:41:48.958Z,925.84
2023-01-27T08:42:48.965Z,925.89
2023-01-27T08:43:49.062Z,925.88
2023-01-27T08:44:48.980Z,925.89
2023-01-27T08:45:48.990Z,925.92
2023-01-27T08:46:48.956Z,925.88
2023-01-27T08:47:48.909Z,925.87
2023-01-27T08:48:48.908Z,925.90
2023-01-27T08:49:48.945Z,925.88
2023-01-27T08:50:48.922Z,925.91
2023-01-27T08:51:48.933Z,925.90
2023-01-27T08:52:49.089Z,925.91
2023-01-27T08:53:48.869Z,925.93
2023-01-27T08:54:48.875Z,925.94
2023-01-27T08:55:48.855Z,925.97
2023-01-27T08:56:48.890Z,926.00
2023-01-27T08:57:48.825Z,926.03
2023-01-27T08:58:48.823Z,926.06
2023-01-27T08:59:48.833Z,926.08
2023-01-27T09:00:48.841Z,926.10
2023-01-27T09:01:48.789Z,926.12
2023-01-27T09:02:48.892Z,926.15
2023-01-27T09:03:48.870Z,926.15
2023-01-27T09:04:48.788Z,926.16
2023-01-27T09:05:48.718Z,926.17
2023-01-27T09:06:48.754Z,926.18
2023-01-27T09:07:48.823Z,926.19
2023-01-27T09:08:48.761Z,926.18
2023-01-27T09:09:48.739Z,926.18
2023-01-27T09:10:48.681Z,926.19
2023-01-27T09:11:48.748Z,926.20
2023-01-27T09:12:48.689Z,926.21
2023-01-27T09:13:48.693Z,926.23
2023-01-27T09:14:48.670Z,926.24
2023-01-27T09:15:48.698Z,926.25
2023-01-27T09:16:48.652Z,926.27
2023-01-27T09:17:48.625Z,926.27
2023-01-27T09:18:48.620Z,926.26
2023-01-27T09:19:48.673Z,926.26
2023-01-27T09:20:48.610Z,926.27
2023-01-27T09:21:48.688Z,926.28
2023-01-27T09:22:48.565Z,926.29
2023-01-27T09:23:48.611Z,926.29
2023-01-27T09:24:48.705Z,926.30
2023-01-27T09:25:48.671Z,926.32
2023-01-27T09:26:48.615Z,926.33
2023-01-27T09:27:48.643Z,926.34
2023-01-27T09:28:48.642Z,926.34
2023-01-27T09:29:48.497Z,926.33
2023-01-27T09:30:48.721Z,926.35
2023-01-27T09:31:48.567Z,926.36
2023-01-27T09:32:48.612Z,926.37
2023-01-27T09:33:48.493Z,926.41
2023-01-27T09:34:48.434Z,926.42
2023-01-27T09:35:48.473Z,926.45
2023-01-27T09:36:48.502Z,926.47
2023-01-27T09:37:48.448Z,926.50
2023-01-27T09:38:48.453Z,926.55
2023-01-27T09:39:48.520Z,926.54
2023-01-27T09:40:48.367Z,926.52
2023-01-27T09:41:48.431Z,926.50
2023-01-27T09:42:48.376Z,926.49
2023-01-27T09:43:48.444Z,926.46
2023-01-27T09:44:48.389Z,926.48
2023-01-27T09:45:48.325Z,926.48
2023-01-27T09:46:48.361Z,926.49
2023-01-27T09:47:48.306Z,926.47
2023-01-27T09:48:48.359Z,926.47
2023-01-27T09:49:48.368Z,926.48
2023-01-27T09:50:48.241Z,926.49
2023-01-27T09:51:48.299Z,926.51
2023-01-27T09:52:48.446Z,926.52
2023-01-27T09:53:48.193Z,926.56
2023-01-27T09:54:48.219Z,926.57
2023-01-27T09:55:48.249Z,926.59
2023-01-27T09:56:48.230Z,926.59
2023-01-27T09:57:48.238Z,926.58
2023-01-27T09:58:48.243Z,926.54
2023-01-27T09:59:48.143Z,926.52
2023-01-27T10:00:48.154Z,926.50
2023-01-27T10:01:48.259Z,926.51
2023-01-27T10:02:48.173Z,926.54
2023-01-27T10:03:48.174Z,926.56
2023-01-27T10:04:48.212Z,926.59
2023-01-27T10:05:48.085Z,926.61
2023-01-27T10:06:48.157Z,926.61
2023-01-27T10:07:48.102Z,926.63
2023-01-27T10:08:48.166Z,926.62
2023-01-27T10:09:48.115Z,926.62
2023-01-27T10:10:48.151Z,926.62
2023-01-27T10:11:48.071Z,926.66
2023-01-27T10:12:48.054Z,926.67
2023-01-27T10:13:48.034Z,926.68
2023-01-27T10:14:48.071Z,926.73
2023-01-27T10:15:48.029Z,926.74
2023-01-27T10:16:48.050Z,926.78
2023-01-27T10:17:47.959Z,926.78
2023-01-27T10:18:48.006Z,926.78
2023-01-27T10:19:48.105Z,926.76
2023-01-27T10:20:48.005Z,926.74
2023-01-27T10:21:47.901Z,926.73
2023-01-27T10:22:48.063Z,926.78
2023-01-27T10:23:47.888Z,926.78
2023-01-27T10:24:47.951Z,926.75
2023-01-27T10:25:47.922Z,926.75
2023-01-27T10:26:47.937Z,926.74
2023-01-27T10:27:47.821Z,926.75
2023-01-27T10:28:47.867Z,926.75
2023-01-27T10:29:47.835Z,926.76
2023-01-27T10:30:47.869Z,926.76
2023-01-27T10:31:47.881Z,926.76
2023-01-27T10:32:47.818Z,926.75
2023-01-27T10:33:47.758Z,926.76
2023-01-27T10:34:47.762Z,926.76
2023-01-27T10:35:47.835Z,926.78
2023-01-27T10:36:47.840Z,926.81
2023-01-27T10:37:47.824Z,926.85
2023-01-27T10:38:47.818Z,926.84
2023-01-27T10:39:47.870Z,926.85
2023-01-27T10:40:47.735Z,926.87
2023-01-27T10:41:47.733Z,926.86
2023-01-27T10:42:47.712Z,926.86
2023-01-27T10:43:50.030Z,926.83
2023-01-27T10:44:47.625Z,926.81
2023-01-27T10:45:47.673Z,926.82
2023-01-27T10:46:48.308Z,926.81
2023-01-27T10:47:47.705Z,926.80
2023-01-27T10:48:47.686Z,926.79
2023-01-27T10:49:48.300Z,926.79
2023-01-27T10:50:47.597Z,926.79
2023-01-27T10:51:47.600Z,926.79
2023-01-27T10:52:47.612Z,926.80
2023-01-27T10:53:47.609Z,926.80
2023-01-27T10:54:47.617Z,926.81
2023-01-27T10:55:47.577Z,926.83
2023-01-27T10:56:47.663Z,926.84
2023-01-27T10:57:47.540Z,926.86
2023-01-27T10:58:47.552Z,926.87
2023-01-27T11:00:05.279Z,926.88
2023-01-27T11:01:47.612Z,926.90
2023-01-27T11:02:47.463Z,926.90
2023-01-27T11:03:47.508Z,926.90
2023-01-27T11:04:47.484Z,926.94
2023-01-27T11:05:47.483Z,926.97
2023-01-27T11:06:47.512Z,926.94
2023-01-27T11:07:47.413Z,926.95
2023-01-27T11:08:47.364Z,926.94
2023-01-27T11:09:47.412Z,926.95
2023-01-27T11:10:47.378Z,926.99
2023-01-27T11:11:47.410Z,926.99
2023-01-27T11:12:47.395Z,927.01
2023-01-27T11:13:47.424Z,927.02
2023-01-27T11:14:47.478Z,927.02
2023-01-27T11:15:47.370Z,927.02
2023-01-27T11:16:47.408Z,927.03
2023-01-27T11:17:47.428Z,927.01
2023-01-27T11:18:47.374Z,927.00
2023-01-27T11:19:47.307Z,927.00
2023-01-27T11:20:47.235Z,926.98
2023-01-27T11:21:55.481Z,926.95
2023-01-27T11:22:48.094Z,926.96
2023-01-27T11:23:47.333Z,926.99
2023-01-27T11:24:47.313Z,927.00
2023-01-27T11:25:47.213Z,926.99
2023-01-27T11:26:47.174Z,927.00
2023-01-27T11:27:47.232Z,927.01
2023-01-27T11:28:47.192Z,927.05
2023-01-27T11:29:47.272Z,927.05
2023-01-27T11:30:47.162Z,927.07
2023-01-27T11:31:47.270Z,927.09
2023-01-27T11:32:47.178Z,927.08
2023-01-27T11:33:47.171Z,927.07
2023-01-27T11:34:47.182Z,927.08
2023-01-27T11:35:47.280Z,927.09
2023-01-27T11:36:49.302Z,927.10
2023-01-27T11:37:47.095Z,927.07
2023-01-27T11:38:47.093Z,927.06
2023-01-27T11:39:47.095Z,927.05
2023-01-27T11:40:47.120Z,927.08
2023-01-27T11:41:47.083Z,927.06
2023-01-27T11:42:47.092Z,927.06
2023-01-27T11:43:47.127Z,927.07
2023-01-27T11:44:47.000Z,927.06
2023-01-27T11:45:47.067Z,927.06
2023-01-27T11:46:47.109Z,927.07
2023-01-27T11:47:47.009Z,927.11
2023-01-27T11:48:46.972Z,927.12
2023-01-27T11:49:47.071Z,927.10
2023-01-27T11:50:46.977Z,927.09
2023-01-27T11:51:46.989Z,927.09
2023-01-27T11:52:47.771Z,927.10
2023-01-27T11:53:47.874Z,927.11
2023-01-27T11:54:47.031Z,927.09
2023-01-27T11:55:46.967Z,927.11
2023-01-27T11:56:46.863Z,927.12
2023-01-27T11:57:46.865Z,927.13
2023-01-27T11:58:46.972Z,927.15
2023-01-27T11:59:47.039Z,927.21
2023-01-27T12:00:46.839Z,927.24
2023-01-27T12:01:46.846Z,927.21
2023-01-27T12:02:46.916Z,927.19
2023-01-27T12:03:46.873Z,927.19
2023-01-27T12:04:46.962Z,927.18
2023-01-27T12:05:47.120Z,927.22
2023-01-27T12:06:46.785Z,927.25
2023-01-27T12:07:46.746Z,927.26
2023-01-27T12:08:46.749Z,927.26
2023-01-27T12:09:46.762Z,927.28
2023-01-27T12:10:46.851Z,927.30
2023-01-27T12:11:46.712Z,927.24
2023-01-27T12:12:46.717Z,927.27
2023-01-27T12:13:46.675Z,927.25
2023-01-27T12:14:46.731Z,927.24
2023-01-27T12:15:46.754Z,927.22
2023-01-27T12:16:46.652Z,927.20
2023-01-27T12:17:46.644Z,927.20
2023-01-27T12:18:46.765Z,927.17
2023-01-27T12:19:46.660Z,927.18
2023-01-27T12:20:46.630Z,927.22
2023-01-27T12:21:46.705Z,927.21
2023-01-27T12:22:46.581Z,927.20
2023-01-27T12:23:46.589Z,927.24
2023-01-27T12:24:46.642Z,927.22
2023-01-27T12:25:48.408Z,927.23
2023-01-27T12:26:46.610Z,927.22
2023-01-27T12:27:46.615Z,927.22
2023-01-27T12:28:46.520Z,927.22
2023-01-27T12:29:46.505Z,927.16